sensor_id;sensor_type;location;lat;lon;timestamp;pressure;altitude;pressure_sealevel;temperature
20736;BMP180;10528;52.124;5.196;2023-02-11T00:03:56;103282.00;;;13.40
20736;BMP180;10528;52.124;5.196;2023-02-11T00:06:25;103258.00;;;13.40
20736;BMP180;10528;52.124;5.196;2023-02-11T00:08:54;103252.00;;;13.40
20736;BMP180;10528;52.124;5.196;2023-02-11T00:11:23;103259.00;;;13.40
20736;BMP180;10528;52.124;5.196;2023-02-11T00:13:52;103251.00;;;13.40
20736;BMP180;10528;52.124;5.196;2023-02-11T00:16:19;103257.00;;;13.40
20736;BMP180;10528;52.124;5.196;2023-02-11T00:18:47;103263.00;;;13.40
20736;BMP180;10528;52.124;5.196;2023-02-11T00:21:17;103257.00;;;13.40
20736;BMP180;10528;52.124;5.196;2023-02-11T00:23:45;103256.00;;;13.40
20736;BMP180;10528;52.124;5.196;2023-02-11T00:26:22;103252.00;;;13.40
20736;BMP180;10528;52.124;5.196;2023-02-11T00:28:51;103252.00;;;13.40
20736;BMP180;10528;52.124;5.196;2023-02-11T00:31:21;103259.00;;;13.40
20736;BMP180;10528;52.124;5.196;2023-02-11T00:33:48;103250.00;;;13.40
20736;BMP180;10528;52.124;5.196;2023-02-11T00:36:20;103252.00;;;13.30
20736;BMP180;10528;52.124;5.196;2023-02-11T00:38:49;103256.00;;;13.30
20736;BMP180;10528;52.124;5.196;2023-02-11T00:41:17;103255.00;;;13.30
20736;BMP180;10528;52.124;5.196;2023-02-11T00:43:45;103245.00;;;13.30
20736;BMP180;10528;52.124;5.196;2023-02-11T00:46:12;103254.00;;;13.30
20736;BMP180;10528;52.124;5.196;2023-02-11T00:48:40;103271.00;;;13.30
20736;BMP180;10528;52.124;5.196;2023-02-11T00:51:08;103271.00;;;13.30
20736;BMP180;10528;52.124;5.196;2023-02-11T00:53:35;103273.00;;;13.30
20736;BMP180;10528;52.124;5.196;2023-02-11T00:56:03;103262.00;;;13.30
20736;BMP180;10528;52.124;5.196;2023-02-11T00:58:30;103258.00;;;13.40
20736;BMP180;10528;52.124;5.196;2023-02-11T01:00:57;103253.00;;;13.30
20736;BMP180;10528;52.124;5.196;2023-02-11T01:03:24;103252.00;;;13.40
20736;BMP180;10528;52.124;5.196;2023-02-11T01:05:52;103243.00;;;13.30
20736;BMP180;10528;52.124;5.196;2023-02-11T01:08:19;103245.00;;;13.30
20736;BMP180;10528;52.124;5.196;2023-02-11T01:11:03;103234.00;;;13.30
20736;BMP180;10528;52.124;5.196;2023-02-11T01:13:32;103232.00;;;13.30
20736;BMP180;10528;52.124;5.196;2023-02-11T01:16:00;103234.00;;;13.30
20736;BMP180;10528;52.124;5.196;2023-02-11T01:18:27;103230.00;;;13.30
20736;BMP180;10528;52.124;5.196;2023-02-11T01:20:54;103241.00;;;13.30
20736;BMP180;10528;52.124;5.196;2023-02-11T01:23:22;103237.00;;;13.30
20736;BMP180;10528;52.124;5.196;2023-02-11T01:25:49;103233.00;;;13.30
20736;BMP180;10528;52.124;5.196;2023-02-11T01:28:23;103225.00;;;13.30
20736;BMP180;10528;52.124;5.196;2023-02-11T01:30:51;103220.00;;;13.30
20736;BMP180;10528;52.124;5.196;2023-02-11T01:33:20;103234.00;;;13.30
20736;BMP180;10528;52.124;5.196;2023-02-11T01:35:47;103240.00;;;13.30
20736;BMP180;10528;52.124;5.196;2023-02-11T01:38:23;103251.00;;;13.20
20736;BMP180;10528;52.124;5.196;2023-02-11T01:41:03;103245.00;;;13.20
20736;BMP180;10528;52.124;5.196;2023-02-11T01:43:34;103248.00;;;13.20
20736;BMP180;10528;52.124;5.196;2023-02-11T01:48:47;103248.00;;;13.20
20736;BMP180;10528;52.124;5.196;2023-02-11T01:51:18;103235.00;;;13.10
20736;BMP180;10528;52.124;5.196;2023-02-11T01:53:48;103230.00;;;13.10
20736;BMP180;10528;52.124;5.196;2023-02-11T01:56:38;103227.00;;;13.10
20736;BMP180;10528;52.124;5.196;2023-02-11T01:59:33;103245.00;;;13.00
20736;BMP180;10528;52.124;5.196;2023-02-11T02:02:09;103245.00;;;13.00
20736;BMP180;10528;52.124;5.196;2023-02-11T02:04:59;103241.00;;;13.00
20736;BMP180;10528;52.124;5.196;2023-02-11T02:07:40;103244.00;;;12.90
20736;BMP180;10528;52.124;5.196;2023-02-11T02:10:16;103246.00;;;12.90
20736;BMP180;10528;52.124;5.196;2023-02-11T02:12:45;103243.00;;;12.90
20736;BMP180;10528;52.124;5.196;2023-02-11T02:15:26;103241.00;;;12.90
20736;BMP180;10528;52.124;5.196;2023-02-11T02:27:21;103229.00;;;12.80
20736;BMP180;10528;52.124;5.196;2023-02-11T02:36:07;103232.00;;;12.70
20736;BMP180;10528;52.124;5.196;2023-02-11T02:39:14;103226.00;;;12.70
20736;BMP180;10528;52.124;5.196;2023-02-11T02:41:46;103216.00;;;12.70
20736;BMP180;10528;52.124;5.196;2023-02-11T02:44:14;103216.00;;;12.70
20736;BMP180;10528;52.124;5.196;2023-02-11T02:46:41;103217.00;;;12.70
20736;BMP180;10528;52.124;5.196;2023-02-11T02:49:15;103210.00;;;12.70
20736;BMP180;10528;52.124;5.196;2023-02-11T02:52:07;103204.00;;;12.70
20736;BMP180;10528;52.124;5.196;2023-02-11T02:54:57;103223.00;;;12.70
20736;BMP180;10528;52.124;5.196;2023-02-11T03:03:58;103229.00;;;12.70
20736;BMP180;10528;52.124;5.196;2023-02-11T03:12:04;103218.00;;;12.70
20736;BMP180;10528;52.124;5.196;2023-02-11T03:14:34;103219.00;;;12.70
20736;BMP180;10528;52.124;5.196;2023-02-11T03:17:05;103208.00;;;12.70
20736;BMP180;10528;52.124;5.196;2023-02-11T03:19:40;103213.00;;;12.70
20736;BMP180;10528;52.124;5.196;2023-02-11T03:22:33;103216.00;;;12.70
20736;BMP180;10528;52.124;5.196;2023-02-11T03:25:02;103210.00;;;12.70
20736;BMP180;10528;52.124;5.196;2023-02-11T03:27:46;103197.00;;;12.70
20736;BMP180;10528;52.124;5.196;2023-02-11T03:30:27;103195.00;;;12.70
20736;BMP180;10528;52.124;5.196;2023-02-11T03:33:18;103190.00;;;12.70
20736;BMP180;10528;52.124;5.196;2023-02-11T03:35:56;103187.00;;;12.70
20736;BMP180;10528;52.124;5.196;2023-02-11T03:38:32;103179.00;;;12.70
20736;BMP180;10528;52.124;5.196;2023-02-11T03:41:02;103174.00;;;12.70
20736;BMP180;10528;52.124;5.196;2023-02-11T03:43:43;103204.00;;;12.60
20736;BMP180;10528;52.124;5.196;2023-02-11T03:46:15;103196.00;;;12.60
20736;BMP180;10528;52.124;5.196;2023-02-11T03:48:51;103194.00;;;12.60
20736;BMP180;10528;52.124;5.196;2023-02-11T03:51:23;103185.00;;;12.60
20736;BMP180;10528;52.124;5.196;2023-02-11T03:53:55;103177.00;;;12.60
20736;BMP180;10528;52.124;5.196;2023-02-11T03:56:28;103178.00;;;12.60
20736;BMP180;10528;52.124;5.196;2023-02-11T03:58:56;103173.00;;;12.60
20736;BMP180;10528;52.124;5.196;2023-02-11T04:01:23;103173.00;;;12.60
20736;BMP180;10528;52.124;5.196;2023-02-11T04:03:50;103171.00;;;12.60
20736;BMP180;10528;52.124;5.196;2023-02-11T04:06:17;103173.00;;;12.50
20736;BMP180;10528;52.124;5.196;2023-02-11T04:08:44;103189.00;;;12.50
20736;BMP180;10528;52.124;5.196;2023-02-11T04:11:11;103188.00;;;12.50
20736;BMP180;10528;52.124;5.196;2023-02-11T04:13:37;103188.00;;;12.50
20736;BMP180;10528;52.124;5.196;2023-02-11T04:16:04;103186.00;;;12.50
20736;BMP180;10528;52.124;5.196;2023-02-11T04:18:31;103187.00;;;12.50
20736;BMP180;10528;52.124;5.196;2023-02-11T04:20:58;103180.00;;;12.60
20736;BMP180;10528;52.124;5.196;2023-02-11T04:23:25;103183.00;;;12.60
20736;BMP180;10528;52.124;5.196;2023-02-11T04:25:52;103189.00;;;12.60
20736;BMP180;10528;52.124;5.196;2023-02-11T04:28:19;103177.00;;;12.60
20736;BMP180;10528;52.124;5.196;2023-02-11T04:30:48;103185.00;;;12.60
20736;BMP180;10528;52.124;5.196;2023-02-11T04:33:16;103186.00;;;12.70
20736;BMP180;10528;52.124;5.196;2023-02-11T04:35:43;103202.00;;;12.60
20736;BMP180;10528;52.124;5.196;2023-02-11T04:38:10;103202.00;;;12.70
20736;BMP180;10528;52.124;5.196;2023-02-11T04:40:37;103197.00;;;12.70
20736;BMP180;10528;52.124;5.196;2023-02-11T04:43:04;103205.00;;;12.70
20736;BMP180;10528;52.124;5.196;2023-02-11T04:45:32;103195.00;;;12.70
20736;BMP180;10528;52.124;5.196;2023-02-11T04:48:01;103199.00;;;12.70
20736;BMP180;10528;52.124;5.196;2023-02-11T04:50:29;103196.00;;;12.70
20736;BMP180;10528;52.124;5.196;2023-02-11T04:52:56;103211.00;;;12.80
20736;BMP180;10528;52.124;5.196;2023-02-11T04:55:23;103212.00;;;12.80
20736;BMP180;10528;52.124;5.196;2023-02-11T04:57:50;103206.00;;;12.80
20736;BMP180;10528;52.124;5.196;2023-02-11T05:00:17;103197.00;;;12.80
20736;BMP180;10528;52.124;5.196;2023-02-11T05:02:44;103205.00;;;12.80
20736;BMP180;10528;52.124;5.196;2023-02-11T05:05:11;103208.00;;;12.80
20736;BMP180;10528;52.124;5.196;2023-02-11T05:07:38;103209.00;;;12.90
20736;BMP180;10528;52.124;5.196;2023-02-11T05:10:05;103204.00;;;12.90
20736;BMP180;10528;52.124;5.196;2023-02-11T05:12:31;103209.00;;;12.80
20736;BMP180;10528;52.124;5.196;2023-02-11T05:14:58;103208.00;;;12.80
20736;BMP180;10528;52.124;5.196;2023-02-11T05:17:25;103193.00;;;12.80
20736;BMP180;10528;52.124;5.196;2023-02-11T05:19:52;103208.00;;;12.90
20736;BMP180;10528;52.124;5.196;2023-02-11T05:22:19;103197.00;;;12.80
20736;BMP180;10528;52.124;5.196;2023-02-11T05:24:47;103196.00;;;12.90
20736;BMP180;10528;52.124;5.196;2023-02-11T05:27:14;103193.00;;;12.90
20736;BMP180;10528;52.124;5.196;2023-02-11T05:29:41;103210.00;;;12.80
20736;BMP180;10528;52.124;5.196;2023-02-11T05:32:08;103206.00;;;12.80
20736;BMP180;10528;52.124;5.196;2023-02-11T05:34:35;103204.00;;;12.80
20736;BMP180;10528;52.124;5.196;2023-02-11T05:37:02;103208.00;;;12.90
20736;BMP180;10528;52.124;5.196;2023-02-11T05:39:29;103212.00;;;12.90
20736;BMP180;10528;52.124;5.196;2023-02-11T05:41:56;103203.00;;;12.90
20736;BMP180;10528;52.124;5.196;2023-02-11T05:44:23;103202.00;;;12.90
20736;BMP180;10528;52.124;5.196;2023-02-11T05:46:50;103211.00;;;12.90
20736;BMP180;10528;52.124;5.196;2023-02-11T05:49:18;103198.00;;;12.90
20736;BMP180;10528;52.124;5.196;2023-02-11T05:51:45;103190.00;;;12.90
20736;BMP180;10528;52.124;5.196;2023-02-11T05:54:12;103201.00;;;12.90
20736;BMP180;10528;52.124;5.196;2023-02-11T05:56:39;103203.00;;;12.90
20736;BMP180;10528;52.124;5.196;2023-02-11T05:59:12;103202.00;;;12.90
20736;BMP180;10528;52.124;5.196;2023-02-11T06:01:40;103202.00;;;13.00
20736;BMP180;10528;52.124;5.196;2023-02-11T06:04:07;103207.00;;;13.00
20736;BMP180;10528;52.124;5.196;2023-02-11T06:06:34;103210.00;;;13.00
20736;BMP180;10528;52.124;5.196;2023-02-11T06:09:02;103211.00;;;13.00
20736;BMP180;10528;52.124;5.196;2023-02-11T06:11:29;103208.00;;;13.00
20736;BMP180;10528;52.124;5.196;2023-02-11T06:13:56;103205.00;;;13.00
20736;BMP180;10528;52.124;5.196;2023-02-11T06:16:23;103210.00;;;13.00
20736;BMP180;10528;52.124;5.196;2023-02-11T06:18:50;103220.00;;;13.00
20736;BMP180;10528;52.124;5.196;2023-02-11T06:21:17;103217.00;;;13.00
20736;BMP180;10528;52.124;5.196;2023-02-11T06:23:43;103219.00;;;13.00
20736;BMP180;10528;52.124;5.196;2023-02-11T06:26:19;103218.00;;;13.00
20736;BMP180;10528;52.124;5.196;2023-02-11T06:28:47;103227.00;;;13.00
20736;BMP180;10528;52.124;5.196;2023-02-11T06:31:14;103213.00;;;13.00
20736;BMP180;10528;52.124;5.196;2023-02-11T06:33:42;103215.00;;;13.00
20736;BMP180;10528;52.124;5.196;2023-02-11T06:36:20;103222.00;;;13.10
20736;BMP180;10528;52.124;5.196;2023-02-11T06:38:48;103226.00;;;13.10
20736;BMP180;10528;52.124;5.196;2023-02-11T06:41:17;103221.00;;;13.10
20736;BMP180;10528;52.124;5.196;2023-02-11T06:43:48;103225.00;;;13.10
20736;BMP180;10528;52.124;5.196;2023-02-11T06:46:15;103217.00;;;13.10
20736;BMP180;10528;52.124;5.196;2023-02-11T06:48:42;103216.00;;;13.10
20736;BMP180;10528;52.124;5.196;2023-02-11T06:51:12;103230.00;;;13.10
20736;BMP180;10528;52.124;5.196;2023-02-11T06:53:44;103234.00;;;13.10
20736;BMP180;10528;52.124;5.196;2023-02-11T06:56:18;103222.00;;;13.10
20736;BMP180;10528;52.124;5.196;2023-02-11T06:58:46;103221.00;;;13.10
20736;BMP180;10528;52.124;5.196;2023-02-11T07:01:15;103218.00;;;13.10
20736;BMP180;10528;52.124;5.196;2023-02-11T07:03:44;103216.00;;;13.10
20736;BMP180;10528;52.124;5.196;2023-02-11T07:06:18;103216.00;;;13.10
20736;BMP180;10528;52.124;5.196;2023-02-11T07:08:46;103221.00;;;13.10
20736;BMP180;10528;52.124;5.196;2023-02-11T07:11:23;103230.00;;;13.10
20736;BMP180;10528;52.124;5.196;2023-02-11T07:13:53;103233.00;;;13.10
20736;BMP180;10528;52.124;5.196;2023-02-11T07:16:21;103238.00;;;13.10
20736;BMP180;10528;52.124;5.196;2023-02-11T07:18:48;103248.00;;;13.20
20736;BMP180;10528;52.124;5.196;2023-02-11T07:21:19;103249.00;;;13.20
20736;BMP180;10528;52.124;5.196;2023-02-11T07:23:47;103257.00;;;13.20
20736;BMP180;10528;52.124;5.196;2023-02-11T07:26:18;103235.00;;;13.20
20736;BMP180;10528;52.124;5.196;2023-02-11T07:28:45;103238.00;;;13.20
20736;BMP180;10528;52.124;5.196;2023-02-11T07:31:16;103243.00;;;13.20
20736;BMP180;10528;52.124;5.196;2023-02-11T07:33:45;103249.00;;;13.20
20736;BMP180;10528;52.124;5.196;2023-02-11T07:36:14;103245.00;;;13.20
20736;BMP180;10528;52.124;5.196;2023-02-11T07:38:42;103260.00;;;13.20
20736;BMP180;10528;52.124;5.196;2023-02-11T07:41:13;103253.00;;;13.20
20736;BMP180;10528;52.124;5.196;2023-02-11T07:43:41;103261.00;;;13.20
20736;BMP180;10528;52.124;5.196;2023-02-11T07:46:30;103271.00;;;13.30
20736;BMP180;10528;52.124;5.196;2023-02-11T07:48:57;103276.00;;;13.30
20736;BMP180;10528;52.124;5.196;2023-02-11T07:51:28;103269.00;;;13.30
20736;BMP180;10528;52.124;5.196;2023-02-11T07:53:58;103272.00;;;13.30
20736;BMP180;10528;52.124;5.196;2023-02-11T07:56:26;103259.00;;;13.30
20736;BMP180;10528;52.124;5.196;2023-02-11T07:58:57;103256.00;;;13.30
20736;BMP180;10528;52.124;5.196;2023-02-11T08:01:26;103259.00;;;13.30
20736;BMP180;10528;52.124;5.196;2023-02-11T08:04:00;103259.00;;;13.30
20736;BMP180;10528;52.124;5.196;2023-02-11T08:06:31;103256.00;;;13.30
20736;BMP180;10528;52.124;5.196;2023-02-11T08:09:05;103261.00;;;13.30
20736;BMP180;10528;52.124;5.196;2023-02-11T08:11:32;103268.00;;;13.30
20736;BMP180;10528;52.124;5.196;2023-02-11T08:14:00;103268.00;;;13.40
20736;BMP180;10528;52.124;5.196;2023-02-11T08:16:33;103279.00;;;13.40
20736;BMP180;10528;52.124;5.196;2023-02-11T08:19:08;103272.00;;;13.40
20736;BMP180;10528;52.124;5.196;2023-02-11T08:21:36;103278.00;;;13.40
20736;BMP180;10528;52.124;5.196;2023-02-11T08:24:03;103275.00;;;13.40
20736;BMP180;10528;52.124;5.196;2023-02-11T08:26:32;103277.00;;;13.40
20736;BMP180;10528;52.124;5.196;2023-02-11T08:29:06;103262.00;;;13.40
20736;BMP180;10528;52.124;5.196;2023-02-11T08:31:38;103266.00;;;13.40
20736;BMP180;10528;52.124;5.196;2023-02-11T08:34:06;103273.00;;;13.50
20736;BMP180;10528;52.124;5.196;2023-02-11T08:36:36;103283.00;;;13.50
20736;BMP180;10528;52.124;5.196;2023-02-11T08:39:07;103281.00;;;13.50
20736;BMP180;10528;52.124;5.196;2023-02-11T08:41:52;103292.00;;;13.50
20736;BMP180;10528;52.124;5.196;2023-02-11T08:44:21;103282.00;;;13.50
20736;BMP180;10528;52.124;5.196;2023-02-11T08:46:49;103290.00;;;13.60
20736;BMP180;10528;52.124;5.196;2023-02-11T08:49:17;103291.00;;;13.60
20736;BMP180;10528;52.124;5.196;2023-02-11T08:51:45;103289.00;;;13.60
20736;BMP180;10528;52.124;5.196;2023-02-11T08:54:12;103294.00;;;13.60
20736;BMP180;10528;52.124;5.196;2023-02-11T08:56:39;103298.00;;;13.60
20736;BMP180;10528;52.124;5.196;2023-02-11T08:59:11;103296.00;;;13.70
20736;BMP180;10528;52.124;5.196;2023-02-11T09:01:38;103293.00;;;13.70
20736;BMP180;10528;52.124;5.196;2023-02-11T09:04:05;103297.00;;;13.70
20736;BMP180;10528;52.124;5.196;2023-02-11T09:06:32;103297.00;;;13.70
20736;BMP180;10528;52.124;5.196;2023-02-11T09:09:00;103301.00;;;13.80
20736;BMP180;10528;52.124;5.196;2023-02-11T09:11:34;103310.00;;;13.80
20736;BMP180;10528;52.124;5.196;2023-02-11T09:14:03;103314.00;;;13.80
20736;BMP180;10528;52.124;5.196;2023-02-11T09:16:33;103310.00;;;13.80
20736;BMP180;10528;52.124;5.196;2023-02-11T09:19:04;103319.00;;;13.90
20736;BMP180;10528;52.124;5.196;2023-02-11T09:21:31;103316.00;;;13.90
20736;BMP180;10528;52.124;5.196;2023-02-11T09:23:58;103314.00;;;13.90
20736;BMP180;10528;52.124;5.196;2023-02-11T09:26:30;103329.00;;;13.90
20736;BMP180;10528;52.124;5.196;2023-02-11T09:28:59;103332.00;;;14.00
20736;BMP180;10528;52.124;5.196;2023-02-11T09:31:29;103325.00;;;14.00
20736;BMP180;10528;52.124;5.196;2023-02-11T09:34:03;103331.00;;;14.00
20736;BMP180;10528;52.124;5.196;2023-02-11T09:36:35;103334.00;;;14.00
20736;BMP180;10528;52.124;5.196;2023-02-11T09:39:13;103330.00;;;14.10
20736;BMP180;10528;52.124;5.196;2023-02-11T09:42:13;103326.00;;;14.10
20736;BMP180;10528;52.124;5.196;2023-02-11T09:44:45;103336.00;;;14.10
20736;BMP180;10528;52.124;5.196;2023-02-11T09:47:34;103337.00;;;14.20
20736;BMP180;10528;52.124;5.196;2023-02-11T09:50:12;103340.00;;;14.20
20736;BMP180;10528;52.124;5.196;2023-02-11T09:52:49;103342.00;;;14.30
20736;BMP180;10528;52.124;5.196;2023-02-11T09:57:57;103341.00;;;14.30
20736;BMP180;10528;52.124;5.196;2023-02-11T10:00:33;103343.00;;;14.40
20736;BMP180;10528;52.124;5.196;2023-02-11T10:03:50;103360.00;;;14.40
20736;BMP180;10528;52.124;5.196;2023-02-11T10:06:51;103374.00;;;14.40
20736;BMP180;10528;52.124;5.196;2023-02-11T10:15:45;103363.00;;;14.50
20736;BMP180;10528;52.124;5.196;2023-02-11T10:18:49;103370.00;;;14.60
20736;BMP180;10528;52.124;5.196;2023-02-11T10:21:46;103374.00;;;14.60
20736;BMP180;10528;52.124;5.196;2023-02-11T10:24:17;103379.00;;;14.70
20736;BMP180;10528;52.124;5.196;2023-02-11T10:26:45;103377.00;;;14.70
20736;BMP180;10528;52.124;5.196;2023-02-11T10:31:57;103389.00;;;14.80
20736;BMP180;10528;52.124;5.196;2023-02-11T10:34:25;103398.00;;;14.80
20736;BMP180;10528;52.124;5.196;2023-02-11T10:36:52;103397.00;;;14.90
20736;BMP180;10528;52.124;5.196;2023-02-11T10:39:24;103391.00;;;14.90
20736;BMP180;10528;52.124;5.196;2023-02-11T10:42:09;103414.00;;;15.00
20736;BMP180;10528;52.124;5.196;2023-02-11T10:44:42;103408.00;;;15.00
20736;BMP180;10528;52.124;5.196;2023-02-11T10:47:21;103408.00;;;15.00
20736;BMP180;10528;52.124;5.196;2023-02-11T10:49:48;103393.00;;;15.00
20736;BMP180;10528;52.124;5.196;2023-02-11T10:52:25;103401.00;;;15.00
20736;BMP180;10528;52.124;5.196;2023-02-11T10:55:14;103400.00;;;15.00
20736;BMP180;10528;52.124;5.196;2023-02-11T10:58:03;103409.00;;;15.00
20736;BMP180;10528;52.124;5.196;2023-02-11T11:00:41;103403.00;;;15.10
20736;BMP180;10528;52.124;5.196;2023-02-11T11:03:20;103384.00;;;15.10
20736;BMP180;10528;52.124;5.196;2023-02-11T11:06:03;103398.00;;;15.10
20736;BMP180;10528;52.124;5.196;2023-02-11T11:08:50;103398.00;;;15.10
20736;BMP180;10528;52.124;5.196;2023-02-11T11:11:24;103395.00;;;15.20
20736;BMP180;10528;52.124;5.196;2023-02-11T11:16:28;103401.00;;;15.30
20736;BMP180;10528;52.124;5.196;2023-02-11T11:19:23;103421.00;;;15.30
20736;BMP180;10528;52.124;5.196;2023-02-11T11:21:53;103416.00;;;15.40
20736;BMP180;10528;52.124;5.196;2023-02-11T11:24:43;103413.00;;;15.40
20736;BMP180;10528;52.124;5.196;2023-02-11T11:27:22;103425.00;;;15.50
20736;BMP180;10528;52.124;5.196;2023-02-11T11:29:54;103422.00;;;15.50
20736;BMP180;10528;52.124;5.196;2023-02-11T11:32:26;103423.00;;;15.60
20736;BMP180;10528;52.124;5.196;2023-02-11T11:34:59;103423.00;;;15.60
20736;BMP180;10528;52.124;5.196;2023-02-11T11:37:32;103427.00;;;15.70
20736;BMP180;10528;52.124;5.196;2023-02-11T11:42:42;103431.00;;;15.80
20736;BMP180;10528;52.124;5.196;2023-02-11T11:47:54;103453.00;;;15.90
20736;BMP180;10528;52.124;5.196;2023-02-11T11:50:44;103448.00;;;16.00
20736;BMP180;10528;52.124;5.196;2023-02-11T11:56:13;103432.00;;;16.10
20736;BMP180;10528;52.124;5.196;2023-02-11T11:58:42;103425.00;;;16.10
20736;BMP180;10528;52.124;5.196;2023-02-11T12:02:38;103409.00;;;16.10
20736;BMP180;10528;52.124;5.196;2023-02-11T12:10:47;103413.00;;;16.10
20736;BMP180;10528;52.124;5.196;2023-02-11T12:19:21;103420.00;;;16.10
20736;BMP180;10528;52.124;5.196;2023-02-11T12:22:06;103424.00;;;16.10
20736;BMP180;10528;52.124;5.196;2023-02-11T12:25:02;103409.00;;;16.10
20736;BMP180;10528;52.124;5.196;2023-02-11T12:28:13;103421.00;;;16.10
20736;BMP180;10528;52.124;5.196;2023-02-11T12:31:16;103421.00;;;16.10
20736;BMP180;10528;52.124;5.196;2023-02-11T12:34:34;103415.00;;;16.20
20736;BMP180;10528;52.124;5.196;2023-02-11T12:38:04;103413.00;;;16.20
20736;BMP180;10528;52.124;5.196;2023-02-11T12:43:41;103412.00;;;16.30
20736;BMP180;10528;52.124;5.196;2023-02-11T12:46:35;103417.00;;;16.30
20736;BMP180;10528;52.124;5.196;2023-02-11T12:49:30;103415.00;;;16.30
20736;BMP180;10528;52.124;5.196;2023-02-11T12:52:19;103414.00;;;16.40
20736;BMP180;10528;52.124;5.196;2023-02-11T12:55:19;103410.00;;;16.40
20736;BMP180;10528;52.124;5.196;2023-02-11T12:57:50;103411.00;;;16.50
20736;BMP180;10528;52.124;5.196;2023-02-11T13:00:23;103413.00;;;16.50
20736;BMP180;10528;52.124;5.196;2023-02-11T13:03:09;103415.00;;;16.60
20736;BMP180;10528;52.124;5.196;2023-02-11T13:05:55;103403.00;;;16.60
20736;BMP180;10528;52.124;5.196;2023-02-11T13:08:39;103411.00;;;16.60
20736;BMP180;10528;52.124;5.196;2023-02-11T13:11:19;103403.00;;;16.70
20736;BMP180;10528;52.124;5.196;2023-02-11T13:13:55;103413.00;;;16.70
20736;BMP180;10528;52.124;5.196;2023-02-11T13:19:20;103404.00;;;16.70
20736;BMP180;10528;52.124;5.196;2023-02-11T13:22:01;103401.00;;;16.70
20736;BMP180;10528;52.124;5.196;2023-02-11T13:24:55;103404.00;;;16.70
20736;BMP180;10528;52.124;5.196;2023-02-11T13:27:43;103394.00;;;16.70
20736;BMP180;10528;52.124;5.196;2023-02-11T13:30:43;103410.00;;;16.70
20736;BMP180;10528;52.124;5.196;2023-02-11T13:33:34;103403.00;;;16.70
20736;BMP180;10528;52.124;5.196;2023-02-11T13:38:31;103394.00;;;16.70
20736;BMP180;10528;52.124;5.196;2023-02-11T13:41:19;103396.00;;;16.70
20736;BMP180;10528;52.124;5.196;2023-02-11T13:52:15;103408.00;;;16.70
20736;BMP180;10528;52.124;5.196;2023-02-11T13:54:49;103397.00;;;16.70
20736;BMP180;10528;52.124;5.196;2023-02-11T13:59:55;103398.00;;;16.70
20736;BMP180;10528;52.124;5.196;2023-02-11T14:02:29;103388.00;;;16.70
20736;BMP180;10528;52.124;5.196;2023-02-11T14:05:24;103399.00;;;16.70
20736;BMP180;10528;52.124;5.196;2023-02-11T14:08:12;103404.00;;;16.60
20736;BMP180;10528;52.124;5.196;2023-02-11T14:11:10;103396.00;;;16.60
20736;BMP180;10528;52.124;5.196;2023-02-11T14:14:27;103393.00;;;16.60
20736;BMP180;10528;52.124;5.196;2023-02-11T14:19:41;103409.00;;;16.60
20736;BMP180;10528;52.124;5.196;2023-02-11T14:22:20;103416.00;;;16.70
20736;BMP180;10528;52.124;5.196;2023-02-11T14:27:43;103404.00;;;16.70
20736;BMP180;10528;52.124;5.196;2023-02-11T14:30:42;103416.00;;;16.70
20736;BMP180;10528;52.124;5.196;2023-02-11T14:39:57;103416.00;;;16.70
20736;BMP180;10528;52.124;5.196;2023-02-11T14:42:29;103404.00;;;16.70
20736;BMP180;10528;52.124;5.196;2023-02-11T14:45:05;103416.00;;;16.70
20736;BMP180;10528;52.124;5.196;2023-02-11T14:47:44;103418.00;;;16.70
20736;BMP180;10528;52.124;5.196;2023-02-11T14:50:33;103415.00;;;16.70
20736;BMP180;10528;52.124;5.196;2023-02-11T14:53:03;103423.00;;;16.70
20736;BMP180;10528;52.124;5.196;2023-02-11T14:55:40;103426.00;;;16.70
20736;BMP180;10528;52.124;5.196;2023-02-11T14:58:21;103425.00;;;16.70
20736;BMP180;10528;52.124;5.196;2023-02-11T15:00:59;103421.00;;;16.70
20736;BMP180;10528;52.124;5.196;2023-02-11T15:03:37;103422.00;;;16.70
20736;BMP180;10528;52.124;5.196;2023-02-11T15:06:15;103418.00;;;16.70
20736;BMP180;10528;52.124;5.196;2023-02-11T15:08:50;103421.00;;;16.70
20736;BMP180;10528;52.124;5.196;2023-02-11T15:11:21;103419.00;;;16.70
20736;BMP180;10528;52.124;5.196;2023-02-11T15:13:50;103419.00;;;16.70
20736;BMP180;10528;52.124;5.196;2023-02-11T15:16:27;103430.00;;;16.60
20736;BMP180;10528;52.124;5.196;2023-02-11T15:19:05;103428.00;;;16.60
20736;BMP180;10528;52.124;5.196;2023-02-11T15:21:34;103436.00;;;16.60
20736;BMP180;10528;52.124;5.196;2023-02-11T15:24:19;103439.00;;;16.60
20736;BMP180;10528;52.124;5.196;2023-02-11T15:27:08;103440.00;;;16.60
20736;BMP180;10528;52.124;5.196;2023-02-11T15:29:44;103444.00;;;16.60
20736;BMP180;10528;52.124;5.196;2023-02-11T15:32:16;103446.00;;;16.60
20736;BMP180;10528;52.124;5.196;2023-02-11T15:34:45;103451.00;;;16.60
20736;BMP180;10528;52.124;5.196;2023-02-11T15:37:21;103450.00;;;16.50
20736;BMP180;10528;52.124;5.196;2023-02-11T15:39:49;103443.00;;;16.50
20736;BMP180;10528;52.124;5.196;2023-02-11T15:42:30;103450.00;;;16.50
20736;BMP180;10528;52.124;5.196;2023-02-11T15:47:52;103445.00;;;16.50
20736;BMP180;10528;52.124;5.196;2023-02-11T15:50:25;103452.00;;;16.50
20736;BMP180;10528;52.124;5.196;2023-02-11T15:52:56;103449.00;;;16.40
20736;BMP180;10528;52.124;5.196;2023-02-11T15:55:26;103443.00;;;16.40
20736;BMP180;10528;52.124;5.196;2023-02-11T15:57:58;103455.00;;;16.40
20736;BMP180;10528;52.124;5.196;2023-02-11T16:00:35;103442.00;;;16.40
20736;BMP180;10528;52.124;5.196;2023-02-11T16:03:03;103445.00;;;16.30
20736;BMP180;10528;52.124;5.196;2023-02-11T16:05:36;103444.00;;;16.30
20736;BMP180;10528;52.124;5.196;2023-02-11T16:08:26;103450.00;;;16.30
20736;BMP180;10528;52.124;5.196;2023-02-11T16:11:00;103455.00;;;16.30
20736;BMP180;10528;52.124;5.196;2023-02-11T16:13:30;103463.00;;;16.30
20736;BMP180;10528;52.124;5.196;2023-02-11T16:16:02;103463.00;;;16.20
20736;BMP180;10528;52.124;5.196;2023-02-11T16:18:55;103466.00;;;16.20